Scappoose, Oregon
Current Conditions -  °F | °C
As of 6:53 AM on Saturday 25 Oct 2014 (Local Time) from KSPB Reporting Station
Light Rain Light Rain  
Wind Chill: 53°   Ceiling: 7000
Heat Index: 53°   Visibility: 10mi
Dew Point: 50°   Wind: 5mph
Humidity: 89%   Direction: NA
Pressure: 29.58"   Gusts: NA
Location:  45.75°N, 122.88°W
Report Text: KSPB 251353Z AUTO VRB04KT 10SM -RA FEW045 OVC070 12/10 A2958 RMK AO2 SLP015 P0001 T01170100
Loading
Personal Weather Stations






























Interactive Weather Map
Tropical Storm Tracking
New forecast layout! Learn more

10-Day Weather Forecast

Advertisements
Track Severe Weather on mobile